sensor_id;sensor_type;location;lat;lon;timestamp;pressure;altitude;pressure_sealevel;temperature;humidity
76732;BME280;65656;51.130;13.658;2024-01-25T00:00:43;99530.47;;;6.60;100.00
76732;BME280;65656;51.130;13.658;2024-01-25T00:04:49;99536.19;;;6.52;100.00
76732;BME280;65656;51.130;13.658;2024-01-25T00:08:51;99521.25;;;6.61;100.00
76732;BME280;65656;51.130;13.658;2024-01-25T00:12:53;99528.59;;;6.60;100.00
76732;BME280;65656;51.130;13.658;2024-01-25T00:16:55;99541.38;;;6.60;100.00
76732;BME280;65656;51.130;13.658;2024-01-25T00:20:58;99535.09;;;6.59;100.00
76732;BME280;65656;51.130;13.658;2024-01-25T00:25:00;99542.59;;;6.64;100.00
76732;BME280;65656;51.130;13.658;2024-01-25T00:29:02;99544.66;;;6.68;100.00
76732;BME280;65656;51.130;13.658;2024-01-25T00:33:04;99565.44;;;6.63;100.00
76732;BME280;65656;51.130;13.658;2024-01-25T00:37:09;99547.22;;;6.63;100.00
76732;BME280;65656;51.130;13.658;2024-01-25T00:41:17;99567.06;;;6.70;98.94
76732;BME280;65656;51.130;13.658;2024-01-25T00:45:21;99553.53;;;6.57;99.98
76732;BME280;65656;51.130;13.658;2024-01-25T00:49:24;99558.91;;;6.70;98.88
76732;BME280;65656;51.130;13.658;2024-01-25T00:53:31;99557.66;;;6.66;98.25
76732;BME280;65656;51.130;13.658;2024-01-25T00:57:34;99570.22;;;6.67;99.15
76732;BME280;65656;51.130;13.658;2024-01-25T01:01:36;99561.44;;;6.65;98.86
76732;BME280;65656;51.130;13.658;2024-01-25T01:05:39;99563.06;;;6.73;98.88
76732;BME280;65656;51.130;13.658;2024-01-25T01:09:43;99568.13;;;6.69;97.89
76732;BME280;65656;51.130;13.658;2024-01-25T01:13:45;99574.41;;;6.70;98.04
76732;BME280;65656;51.130;13.658;2024-01-25T01:17:47;99580.75;;;6.57;98.58
76732;BME280;65656;51.130;13.658;2024-01-25T01:21:49;99586.59;;;6.61;98.57
76732;BME280;65656;51.130;13.658;2024-01-25T01:25:53;99588.66;;;6.65;98.65
76732;BME280;65656;51.130;13.658;2024-01-25T01:29:55;99605.00;;;6.65;98.00
76732;BME280;65656;51.130;13.658;2024-01-25T01:33:57;99589.03;;;6.69;97.48
76732;BME280;65656;51.130;13.658;2024-01-25T01:38:00;99581.97;;;6.61;98.63
76732;BME280;65656;51.130;13.658;2024-01-25T01:42:03;99603.16;;;6.59;98.67
76732;BME280;65656;51.130;13.658;2024-01-25T01:46:10;99606.31;;;6.56;98.83
76732;BME280;65656;51.130;13.658;2024-01-25T01:50:14;99609.19;;;6.61;99.53
76732;BME280;65656;51.130;13.658;2024-01-25T01:54:16;99595.09;;;6.46;99.74
76732;BME280;65656;51.130;13.658;2024-01-25T01:58:21;99596.31;;;6.50;99.23
76732;BME280;65656;51.130;13.658;2024-01-25T02:02:25;99608.81;;;6.58;98.28
76732;BME280;65656;51.130;13.658;2024-01-25T02:06:27;99600.41;;;6.59;98.91
76732;BME280;65656;51.130;13.658;2024-01-25T02:10:29;99602.16;;;6.54;99.04
76732;BME280;65656;51.130;13.658;2024-01-25T02:14:33;99603.88;;;6.48;99.32
76732;BME280;65656;51.130;13.658;2024-01-25T02:18:35;99605.06;;;6.52;98.80
76732;BME280;65656;51.130;13.658;2024-01-25T02:22:39;99594.63;;;6.49;98.30
76732;BME280;65656;51.130;13.658;2024-01-25T02:26:42;99601.28;;;6.53;98.51
76732;BME280;65656;51.130;13.658;2024-01-25T02:30:44;99609.72;;;6.45;98.72
76732;BME280;65656;51.130;13.658;2024-01-25T02:34:46;99614.75;;;6.48;97.87
76732;BME280;65656;51.130;13.658;2024-01-25T02:38:50;99613.44;;;6.57;97.88
76732;BME280;65656;51.130;13.658;2024-01-25T02:42:52;99610.09;;;6.55;98.55
76732;BME280;65656;51.130;13.658;2024-01-25T02:46:54;99611.81;;;6.50;97.83
76732;BME280;65656;51.130;13.658;2024-01-25T02:50:56;99618.94;;;6.44;98.29
76732;BME280;65656;51.130;13.658;2024-01-25T02:54:59;99611.41;;;6.46;98.67
76732;BME280;65656;51.130;13.658;2024-01-25T02:59:01;99623.50;;;6.57;96.67
76732;BME280;65656;51.130;13.658;2024-01-25T03:03:04;99634.59;;;6.55;98.34
76732;BME280;65656;51.130;13.658;2024-01-25T03:07:06;99628.97;;;6.50;97.23
76732;BME280;65656;51.130;13.658;2024-01-25T03:11:09;99657.59;;;6.59;96.83
76732;BME280;65656;51.130;13.658;2024-01-25T03:15:11;99647.41;;;6.48;96.98
76732;BME280;65656;51.130;13.658;2024-01-25T03:19:13;99649.53;;;6.46;96.74
76732;BME280;65656;51.130;13.658;2024-01-25T03:23:15;99654.03;;;6.59;95.78
76732;BME280;65656;51.130;13.658;2024-01-25T03:27:19;99648.81;;;6.57;96.01
76732;BME280;65656;51.130;13.658;2024-01-25T03:31:21;99648.81;;;6.57;95.32
76732;BME280;65656;51.130;13.658;2024-01-25T03:35:22;99664.16;;;6.45;96.43
76732;BME280;65656;51.130;13.658;2024-01-25T03:39:25;99657.84;;;6.51;96.32
76732;BME280;65656;51.130;13.658;2024-01-25T03:43:28;99667.53;;;6.47;95.16
76732;BME280;65656;51.130;13.658;2024-01-25T03:47:43;99671.31;;;6.46;94.62
76732;BME280;65656;51.130;13.658;2024-01-25T03:51:45;99667.34;;;6.42;94.77
76732;BME280;65656;51.130;13.658;2024-01-25T03:55:47;99667.34;;;6.42;94.50
76732;BME280;65656;51.130;13.658;2024-01-25T03:59:50;99673.22;;;6.39;94.84
76732;BME280;65656;51.130;13.658;2024-01-25T04:03:52;99663.34;;;6.38;95.06
76732;BME280;65656;51.130;13.658;2024-01-25T04:07:55;99661.25;;;6.47;95.06
76732;BME280;65656;51.130;13.658;2024-01-25T04:11:57;99678.69;;;6.32;96.17
76732;BME280;65656;51.130;13.658;2024-01-25T04:16:00;99662.59;;;6.31;96.15
76732;BME280;65656;51.130;13.658;2024-01-25T04:20:02;99648.78;;;6.26;96.07
76732;BME280;65656;51.130;13.658;2024-01-25T04:24:05;99668.47;;;6.14;96.64
76732;BME280;65656;51.130;13.658;2024-01-25T04:28:07;99669.53;;;6.13;96.54
76732;BME280;65656;51.130;13.658;2024-01-25T04:32:12;99676.44;;;6.23;94.89
76732;BME280;65656;51.130;13.658;2024-01-25T04:36:14;99686.44;;;6.29;94.39
76732;BME280;65656;51.130;13.658;2024-01-25T04:40:16;99671.81;;;6.23;95.49
76732;BME280;65656;51.130;13.658;2024-01-25T04:44:18;99660.09;;;6.23;95.21
76732;BME280;65656;51.130;13.658;2024-01-25T04:48:21;99675.19;;;6.19;96.02
76732;BME280;65656;51.130;13.658;2024-01-25T04:52:24;99669.53;;;6.13;96.85
76732;BME280;65656;51.130;13.658;2024-01-25T04:56:27;99686.06;;;6.19;96.06
76732;BME280;65656;51.130;13.658;2024-01-25T05:00:30;99685.25;;;6.11;96.58
76732;BME280;65656;51.130;13.658;2024-01-25T05:04:33;99699.91;;;6.10;97.43
76732;BME280;65656;51.130;13.658;2024-01-25T05:08:35;99696.09;;;6.25;95.83
76732;BME280;65656;51.130;13.658;2024-01-25T05:12:37;99704.91;;;6.13;96.14
76732;BME280;65656;51.130;13.658;2024-01-25T05:16:39;99685.84;;;6.13;95.82
76732;BME280;65656;51.130;13.658;2024-01-25T05:20:43;99704.91;;;6.13;95.79
76732;BME280;65656;51.130;13.658;2024-01-25T05:24:45;99711.41;;;6.12;95.62
76732;BME280;65656;51.130;13.658;2024-01-25T05:28:47;99719.91;;;6.29;94.90
76732;BME280;65656;51.130;13.658;2024-01-25T05:32:49;99731.06;;;6.14;95.71
76732;BME280;65656;51.130;13.658;2024-01-25T05:36:53;99716.44;;;6.16;95.45
76732;BME280;65656;51.130;13.658;2024-01-25T05:40:55;99731.69;;;6.17;94.74
76732;BME280;65656;51.130;13.658;2024-01-25T05:44:57;99741.50;;;6.24;93.62
76732;BME280;65656;51.130;13.658;2024-01-25T05:48:59;99740.47;;;6.19;93.68
76732;BME280;65656;51.130;13.658;2024-01-25T05:53:03;99749.69;;;6.18;93.60
76732;BME280;65656;51.130;13.658;2024-01-25T05:57:05;99762.69;;;6.16;94.50
76732;BME280;65656;51.130;13.658;2024-01-25T06:01:07;99768.13;;;6.16;93.61
76732;BME280;65656;51.130;13.658;2024-01-25T06:05:12;99773.34;;;6.24;93.17
76732;BME280;65656;51.130;13.658;2024-01-25T06:09:15;99793.59;;;6.28;94.01
76732;BME280;65656;51.130;13.658;2024-01-25T06:13:24;99787.16;;;6.16;94.53
76732;BME280;65656;51.130;13.658;2024-01-25T06:17:26;99773.97;;;6.12;95.08
76732;BME280;65656;51.130;13.658;2024-01-25T06:21:29;99777.13;;;6.09;96.00
76732;BME280;65656;51.130;13.658;2024-01-25T06:25:32;99757.66;;;6.06;94.20
76732;BME280;65656;51.130;13.658;2024-01-25T06:29:34;99781.94;;;6.07;94.25
76732;BME280;65656;51.130;13.658;2024-01-25T06:33:36;99782.13;;;6.12;92.44
76732;BME280;65656;51.130;13.658;2024-01-25T06:37:38;99783.19;;;6.11;92.74
76732;BME280;65656;51.130;13.658;2024-01-25T06:41:42;99776.50;;;6.07;92.29
76732;BME280;65656;51.130;13.658;2024-01-25T06:45:44;99794.28;;;6.10;92.27
76732;BME280;65656;51.130;13.658;2024-01-25T06:49:46;99797.84;;;6.04;92.19
76732;BME280;65656;51.130;13.658;2024-01-25T06:53:48;99815.00;;;6.04;92.22
76732;BME280;65656;51.130;13.658;2024-01-25T06:57:52;99824.66;;;6.00;92.88
76732;BME280;65656;51.130;13.658;2024-01-25T07:01:54;99827.56;;;6.05;93.01
76732;BME280;65656;51.130;13.658;2024-01-25T07:05:57;99829.22;;;6.06;92.26
76732;BME280;65656;51.130;13.658;2024-01-25T07:09:59;99850.56;;;6.09;91.99
76732;BME280;65656;51.130;13.658;2024-01-25T07:14:02;99841.38;;;6.04;91.41
76732;BME280;65656;51.130;13.658;2024-01-25T07:18:04;99857.25;;;6.13;90.56
76732;BME280;65656;51.130;13.658;2024-01-25T07:22:07;99840.94;;;6.13;90.21
76732;BME280;65656;51.130;13.658;2024-01-25T07:26:09;99841.34;;;6.24;88.87
76732;BME280;65656;51.130;13.658;2024-01-25T07:30:13;99835.50;;;6.13;89.04
76732;BME280;65656;51.130;13.658;2024-01-25T07:34:15;99861.47;;;6.09;89.94
76732;BME280;65656;51.130;13.658;2024-01-25T07:38:18;99869.19;;;6.12;91.03
76732;BME280;65656;51.130;13.658;2024-01-25T07:42:20;99884.88;;;6.10;91.37
76732;BME280;65656;51.130;13.658;2024-01-25T07:46:23;99861.88;;;6.13;91.59
76732;BME280;65656;51.130;13.658;2024-01-25T07:50:25;99867.72;;;6.10;92.37
76732;BME280;65656;51.130;13.658;2024-01-25T07:54:27;99874.00;;;6.10;91.63
76732;BME280;65656;51.130;13.658;2024-01-25T07:58:29;99872.97;;;6.25;91.78
76732;BME280;65656;51.130;13.658;2024-01-25T08:02:32;99868.13;;;6.13;91.72
76732;BME280;65656;51.130;13.658;2024-01-25T08:06:34;99881.13;;;6.11;91.57
76732;BME280;65656;51.130;13.658;2024-01-25T08:10:37;99863.97;;;6.18;90.64
76732;BME280;65656;51.130;13.658;2024-01-25T08:14:39;99874.84;;;6.24;90.87
76732;BME280;65656;51.130;13.658;2024-01-25T08:18:43;99886.56;;;6.25;90.85
76732;BME280;65656;51.130;13.658;2024-01-25T08:22:45;99881.97;;;6.19;91.20
76732;BME280;65656;51.130;13.658;2024-01-25T08:26:47;99876.94;;;6.16;91.95
76732;BME280;65656;51.130;13.658;2024-01-25T08:30:49;99892.84;;;6.25;91.78
76732;BME280;65656;51.130;13.658;2024-01-25T08:34:53;99897.00;;;6.34;91.68
76732;BME280;65656;51.130;13.658;2024-01-25T08:38:57;99905.59;;;6.18;92.03
76732;BME280;65656;51.130;13.658;2024-01-25T08:42:59;99902.28;;;6.23;91.99
76732;BME280;65656;51.130;13.658;2024-01-25T08:47:01;99910.84;;;6.33;91.40
76732;BME280;65656;51.130;13.658;2024-01-25T08:51:05;99903.09;;;6.17;92.48
76732;BME280;65656;51.130;13.658;2024-01-25T08:55:07;99927.16;;;6.33;92.55
76732;BME280;65656;51.130;13.658;2024-01-25T08:59:09;99932.38;;;6.28;93.06
76732;BME280;65656;51.130;13.658;2024-01-25T09:03:11;99929.25;;;6.18;92.77
76732;BME280;65656;51.130;13.658;2024-01-25T09:07:15;99926.94;;;6.28;93.20
76732;BME280;65656;51.130;13.658;2024-01-25T09:11:17;99927.78;;;6.22;94.06
76732;BME280;65656;51.130;13.658;2024-01-25T09:15:20;99935.94;;;6.35;92.58
76732;BME280;65656;51.130;13.658;2024-01-25T09:19:23;99932.41;;;6.41;93.21
76732;BME280;65656;51.130;13.658;2024-01-25T09:23:26;99928.63;;;6.29;94.34
76732;BME280;65656;51.130;13.658;2024-01-25T09:27:28;99939.72;;;6.27;94.03
76732;BME280;65656;51.130;13.658;2024-01-25T09:31:32;99935.94;;;6.35;94.53
76732;BME280;65656;51.130;13.658;2024-01-25T09:35:34;99949.13;;;6.18;94.92
76732;BME280;65656;51.130;13.658;2024-01-25T09:39:38;99951.03;;;6.31;94.22
76732;BME280;65656;51.130;13.658;2024-01-25T09:43:40;99961.94;;;6.31;94.82
76732;BME280;65656;51.130;13.658;2024-01-25T09:47:43;99949.34;;;6.43;95.15
76732;BME280;65656;51.130;13.658;2024-01-25T09:51:46;99964.41;;;6.46;94.50
76732;BME280;65656;51.130;13.658;2024-01-25T09:55:56;99986.22;;;6.39;95.36
76732;BME280;65656;51.130;13.658;2024-01-25T09:59:59;99975.72;;;6.36;95.68
76732;BME280;65656;51.130;13.658;2024-01-25T10:04:01;99998.34;;;6.43;95.58
76732;BME280;65656;51.130;13.658;2024-01-25T10:08:12;100004.19;;;6.27;95.37
76732;BME280;65656;51.130;13.658;2024-01-25T10:12:16;100021.38;;;6.34;95.25
76732;BME280;65656;51.130;13.658;2024-01-25T10:16:20;100014.66;;;6.30;94.95
76732;BME280;65656;51.130;13.658;2024-01-25T10:20:23;100020.53;;;6.40;93.19
76732;BME280;65656;51.130;13.658;2024-01-25T10:24:25;100012.16;;;6.48;92.18
76732;BME280;65656;51.130;13.658;2024-01-25T10:28:30;100011.75;;;6.51;92.28
76732;BME280;65656;51.130;13.658;2024-01-25T10:32:33;100033.94;;;6.61;91.37
76732;BME280;65656;51.130;13.658;2024-01-25T10:36:35;100045.03;;;6.53;91.60
76732;BME280;65656;51.130;13.658;2024-01-25T10:40:39;100035.19;;;6.59;92.20
76732;BME280;65656;51.130;13.658;2024-01-25T10:44:46;100022.63;;;6.64;92.44
76732;BME280;65656;51.130;13.658;2024-01-25T10:48:48;99998.97;;;6.65;93.93
76732;BME280;65656;51.130;13.658;2024-01-25T10:52:51;99993.31;;;6.80;92.29
76732;BME280;65656;51.130;13.658;2024-01-25T10:56:53;99990.38;;;6.75;89.78
76732;BME280;65656;51.130;13.658;2024-01-25T11:00:57;100003.75;;;6.76;90.09
76732;BME280;65656;51.130;13.658;2024-01-25T11:04:59;100007.53;;;6.68;89.17
76732;BME280;65656;51.130;13.658;2024-01-25T11:09:04;100019.69;;;6.59;87.39
76732;BME280;65656;51.130;13.658;2024-01-25T11:13:13;100001.06;;;6.69;88.30
76732;BME280;65656;51.130;13.658;2024-01-25T11:17:20;100010.88;;;6.84;87.63
76732;BME280;65656;51.130;13.658;2024-01-25T11:21:25;100007.75;;;6.87;87.95
76732;BME280;65656;51.130;13.658;2024-01-25T11:25:27;99996.88;;;6.74;88.87
76732;BME280;65656;51.130;13.658;2024-01-25T11:29:30;99987.22;;;6.78;89.78
76732;BME280;65656;51.130;13.658;2024-01-25T11:33:34;99991.19;;;7.02;89.17
76732;BME280;65656;51.130;13.658;2024-01-25T11:37:36;99992.88;;;6.83;90.59
76732;BME280;65656;51.130;13.658;2024-01-25T11:41:39;99996.41;;;6.83;91.62
76732;BME280;65656;51.130;13.658;2024-01-25T11:45:41;99996.03;;;6.73;92.19
76732;BME280;65656;51.130;13.658;2024-01-25T11:49:46;99991.84;;;6.77;91.12
76732;BME280;65656;51.130;13.658;2024-01-25T11:53:48;99991.81;;;6.84;88.35
76732;BME280;65656;51.130;13.658;2024-01-25T11:57:50;99983.00;;;6.95;86.98
76732;BME280;65656;51.130;13.658;2024-01-25T12:01:52;99975.44;;;6.97;87.39
76732;BME280;65656;51.130;13.658;2024-01-25T12:05:57;99997.38;;;7.29;85.70
76732;BME280;65656;51.130;13.658;2024-01-25T12:10:01;99983.22;;;6.93;87.31
76732;BME280;65656;51.130;13.658;2024-01-25T12:14:05;99986.56;;;6.89;87.53
76732;BME280;65656;51.130;13.658;2024-01-25T12:18:08;99981.94;;;7.03;87.62
76732;BME280;65656;51.130;13.658;2024-01-25T12:22:11;99980.69;;;6.98;87.94
76732;BME280;65656;51.130;13.658;2024-01-25T12:26:15;99999.38;;;6.88;89.07
76732;BME280;65656;51.130;13.658;2024-01-25T12:30:19;100013.81;;;7.02;87.96
76732;BME280;65656;51.130;13.658;2024-01-25T12:34:21;99983.22;;;6.87;88.01
76732;BME280;65656;51.130;13.658;2024-01-25T12:38:24;99991.63;;;6.85;88.19
76732;BME280;65656;51.130;13.658;2024-01-25T12:42:26;99988.25;;;6.77;88.53
76732;BME280;65656;51.130;13.658;2024-01-25T12:46:28;99983.47;;;6.79;89.70
76732;BME280;65656;51.130;13.658;2024-01-25T12:50:31;99991.41;;;6.74;90.06
76732;BME280;65656;51.130;13.658;2024-01-25T12:54:37;99981.19;;;6.62;91.41
76732;BME280;65656;51.130;13.658;2024-01-25T12:58:40;99975.28;;;6.59;91.76
76732;BME280;65656;51.130;13.658;2024-01-25T13:02:42;99957.69;;;6.61;91.72
76732;BME280;65656;51.130;13.658;2024-01-25T13:06:44;99962.75;;;6.51;92.75
76732;BME280;65656;51.130;13.658;2024-01-25T13:10:49;99957.28;;;6.51;93.05
76732;BME280;65656;51.130;13.658;2024-01-25T13:14:51;99969.41;;;6.68;92.47
76732;BME280;65656;51.130;13.658;2024-01-25T13:18:53;99976.97;;;6.73;92.85
76732;BME280;65656;51.130;13.658;2024-01-25T13:22:55;99979.47;;;6.75;93.60
76732;BME280;65656;51.130;13.658;2024-01-25T13:26:58;99987.41;;;6.96;92.33
76732;BME280;65656;51.130;13.658;2024-01-25T13:31:00;99977.56;;;7.02;92.02
76732;BME280;65656;51.130;13.658;2024-01-25T13:35:03;99978.16;;;7.04;92.92
76732;BME280;65656;51.130;13.658;2024-01-25T13:39:05;99993.28;;;6.93;92.08
76732;BME280;65656;51.130;13.658;2024-01-25T13:43:11;100004.81;;;6.95;92.11
76732;BME280;65656;51.130;13.658;2024-01-25T13:47:13;99993.75;;;7.48;89.97
76732;BME280;65656;51.130;13.658;2024-01-25T13:51:15;100008.63;;;7.45;88.18
76732;BME280;65656;51.130;13.658;2024-01-25T13:55:17;99991.56;;;7.05;91.31
76732;BME280;65656;51.130;13.658;2024-01-25T13:59:21;99994.91;;;7.07;91.53
76732;BME280;65656;51.130;13.658;2024-01-25T14:03:23;99998.75;;;6.93;93.53
76732;BME280;65656;51.130;13.658;2024-01-25T14:07:25;100002.09;;;6.82;94.41
76732;BME280;65656;51.130;13.658;2024-01-25T14:11:28;100012.16;;;6.61;95.74
76732;BME280;65656;51.130;13.658;2024-01-25T14:15:32;100007.56;;;6.62;96.64
76732;BME280;65656;51.130;13.658;2024-01-25T14:19:33;100021.38;;;6.60;95.91
76732;BME280;65656;51.130;13.658;2024-01-25T14:23:36;100022.19;;;6.61;95.71
76732;BME280;65656;51.130;13.658;2024-01-25T14:27:38;100019.91;;;6.51;96.12
76732;BME280;65656;51.130;13.658;2024-01-25T14:31:43;100023.88;;;6.35;98.16
76732;BME280;65656;51.130;13.658;2024-01-25T14:35:45;100022.22;;;6.34;98.25
76732;BME280;65656;51.130;13.658;2024-01-25T14:39:47;100029.75;;;6.39;98.60
76732;BME280;65656;51.130;13.658;2024-01-25T14:44:09;100021.78;;;6.31;98.80
76732;BME280;65656;51.130;13.658;2024-01-25T14:48:13;100026.38;;;6.24;98.67
76732;BME280;65656;51.130;13.658;2024-01-25T14:52:15;100037.47;;;6.16;97.01
76732;BME280;65656;51.130;13.658;2024-01-25T14:56:19;100018.38;;;6.02;97.39
76732;BME280;65656;51.130;13.658;2024-01-25T15:00:21;100015.81;;;5.87;97.43
76732;BME280;65656;51.130;13.658;2024-01-25T15:04:24;100024.56;;;5.83;96.98
76732;BME280;65656;51.130;13.658;2024-01-25T15:08:26;100029.56;;;5.73;97.29
76732;BME280;65656;51.130;13.658;2024-01-25T15:12:27;100032.88;;;5.62;98.19
76732;BME280;65656;51.130;13.658;2024-01-25T15:16:29;100033.28;;;5.58;98.35
76732;BME280;65656;51.130;13.658;2024-01-25T15:20:32;100035.94;;;5.45;98.84
76732;BME280;65656;51.130;13.658;2024-01-25T15:24:33;100035.69;;;5.40;99.68
76732;BME280;65656;51.130;13.658;2024-01-25T15:28:35;100047.78;;;5.31;100.00
76732;BME280;65656;51.130;13.658;2024-01-25T15:32:37;100058.69;;;5.38;100.00
76732;BME280;65656;51.130;13.658;2024-01-25T15:36:40;100058.69;;;5.38;100.00
76732;BME280;65656;51.130;13.658;2024-01-25T15:40:42;100057.88;;;5.44;100.00
76732;BME280;65656;51.130;13.658;2024-01-25T15:44:43;100057.53;;;5.53;100.00
76732;BME280;65656;51.130;13.658;2024-01-25T15:48:44;100067.19;;;5.63;100.00
76732;BME280;65656;51.130;13.658;2024-01-25T15:52:47;100066.25;;;5.49;100.00
76732;BME280;65656;51.130;13.658;2024-01-25T15:56:49;100070.88;;;5.48;100.00
76732;BME280;65656;51.130;13.658;2024-01-25T16:00:53;100078.44;;;5.59;100.00
76732;BME280;65656;51.130;13.658;2024-01-25T16:04:55;100074.22;;;5.50;100.00
76732;BME280;65656;51.130;13.658;2024-01-25T16:09:00;100094.03;;;5.44;100.00
76732;BME280;65656;51.130;13.658;2024-01-25T16:13:02;100084.00;;;5.38;100.00
76732;BME280;65656;51.130;13.658;2024-01-25T16:17:04;100087.53;;;5.39;100.00
76732;BME280;65656;51.130;13.658;2024-01-25T16:21:05;100108.50;;;5.51;100.00
76732;BME280;65656;51.130;13.658;2024-01-25T16:25:09;100117.28;;;5.47;100.00
76732;BME280;65656;51.130;13.658;2024-01-25T16:29:11;100120.25;;;5.58;100.00
76732;BME280;65656;51.130;13.658;2024-01-25T16:33:13;100131.09;;;5.52;100.00
76732;BME280;65656;51.130;13.658;2024-01-25T16:37:14;100124.97;;;5.43;100.00
76732;BME280;65656;51.130;13.658;2024-01-25T16:41:17;100125.63;;;5.45;100.00
76732;BME280;65656;51.130;13.658;2024-01-25T16:45:19;100125.63;;;5.45;100.00
76732;BME280;65656;51.130;13.658;2024-01-25T16:49:21;100130.66;;;5.48;100.00
76732;BME280;65656;51.130;13.658;2024-01-25T16:53:23;100130.63;;;5.42;99.86
76732;BME280;65656;51.130;13.658;2024-01-25T16:57:25;100129.78;;;5.41;99.93
76732;BME280;65656;51.130;13.658;2024-01-25T17:01:27;100133.53;;;5.40;100.00
76732;BME280;65656;51.130;13.658;2024-01-25T17:05:29;100124.75;;;5.38;100.00
76732;BME280;65656;51.130;13.658;2024-01-25T17:09:30;100118.03;;;5.34;100.00
76732;BME280;65656;51.130;13.658;2024-01-25T17:13:33;100116.28;;;5.26;100.00
76732;BME280;65656;51.130;13.658;2024-01-25T17:17:34;100121.72;;;5.26;100.00
76732;BME280;65656;51.130;13.658;2024-01-25T17:21:36;100114.19;;;5.22;100.00
76732;BME280;65656;51.130;13.658;2024-01-25T17:25:38;100118.78;;;5.21;100.00
76732;BME280;65656;51.130;13.658;2024-01-25T17:29:40;100125.84;;;5.16;100.00
76732;BME280;65656;51.130;13.658;2024-01-25T17:33:42;100114.56;;;5.19;100.00
76732;BME280;65656;51.130;13.658;2024-01-25T17:37:44;100132.69;;;5.12;100.00
76732;BME280;65656;51.130;13.658;2024-01-25T17:41:45;100136.72;;;5.16;100.00
76732;BME280;65656;51.130;13.658;2024-01-25T17:45:48;100126.28;;;5.19;100.00
76732;BME280;65656;51.130;13.658;2024-01-25T17:49:50;100140.06;;;5.18;100.00
76732;BME280;65656;51.130;13.658;2024-01-25T17:53:55;100144.22;;;5.14;100.00
76732;BME280;65656;51.130;13.658;2024-01-25T17:57:59;100136.84;;;5.08;100.00
76732;BME280;65656;51.130;13.658;2024-01-25T18:02:02;100148.50;;;5.01;100.00
76732;BME280;65656;51.130;13.658;2024-01-25T18:06:04;100142.81;;;4.96;100.00
76732;BME280;65656;51.130;13.658;2024-01-25T18:10:06;100148.50;;;5.01;100.00
76732;BME280;65656;51.130;13.658;2024-01-25T18:14:08;100148.38;;;4.88;100.00
76732;BME280;65656;51.130;13.658;2024-01-25T18:18:11;100147.09;;;4.63;100.00
76732;BME280;65656;51.130;13.658;2024-01-25T18:22:12;100152.53;;;4.63;100.00
76732;BME280;65656;51.130;13.658;2024-01-25T18:26:14;100147.03;;;4.56;100.00
76732;BME280;65656;51.130;13.658;2024-01-25T18:30:16;100148.97;;;4.62;100.00
76732;BME280;65656;51.130;13.658;2024-01-25T18:34:19;100149.75;;;4.78;100.00
76732;BME280;65656;51.130;13.658;2024-01-25T18:38:20;100148.38;;;4.67;100.00
76732;BME280;65656;51.130;13.658;2024-01-25T18:42:22;100150.72;;;4.70;100.00
76732;BME280;65656;51.130;13.658;2024-01-25T18:46:23;100148.84;;;4.70;100.00
76732;BME280;65656;51.130;13.658;2024-01-25T18:50:26;100148.00;;;4.70;100.00
76732;BME280;65656;51.130;13.658;2024-01-25T18:54:28;100153.56;;;4.62;100.00
76732;BME280;65656;51.130;13.658;2024-01-25T18:58:30;100147.53;;;4.66;100.00
76732;BME280;65656;51.130;13.658;2024-01-25T19:02:32;100146.72;;;4.66;100.00
76732;BME280;65656;51.130;13.658;2024-01-25T19:06:36;100152.94;;;4.60;100.00
76732;BME280;65656;51.130;13.658;2024-01-25T19:10:37;100147.94;;;4.63;100.00
76732;BME280;65656;51.130;13.658;2024-01-25T19:14:39;100151.63;;;4.56;100.00
76732;BME280;65656;51.130;13.658;2024-01-25T19:18:41;100151.63;;;4.56;100.00
76732;BME280;65656;51.130;13.658;2024-01-25T19:22:44;100149.88;;;4.48;100.00
76732;BME280;65656;51.130;13.658;2024-01-25T19:26:46;100160.81;;;4.55;100.00
76732;BME280;65656;51.130;13.658;2024-01-25T19:30:48;100151.63;;;4.56;100.00
76732;BME280;65656;51.130;13.658;2024-01-25T19:34:50;100159.13;;;4.54;100.00
76732;BME280;65656;51.130;13.658;2024-01-25T19:38:53;100164.56;;;4.54;100.00
76732;BME280;65656;51.130;13.658;2024-01-25T19:42:55;100157.38;;;4.46;100.00
76732;BME280;65656;51.130;13.658;2024-01-25T19:46:56;100160.28;;;4.44;100.00
76732;BME280;65656;51.130;13.658;2024-01-25T19:50:58;100164.56;;;4.54;100.00
76732;BME280;65656;51.130;13.658;2024-01-25T19:55:01;100161.66;;;4.55;100.00
76732;BME280;65656;51.130;13.658;2024-01-25T19:59:03;100156.91;;;4.42;100.00
76732;BME280;65656;51.130;13.658;2024-01-25T20:03:05;100164.00;;;4.43;100.00
76732;BME280;65656;51.130;13.658;2024-01-25T20:07:08;100170.06;;;4.60;100.00
76732;BME280;65656;51.130;13.658;2024-01-25T20:11:11;100166.06;;;4.41;100.00
76732;BME280;65656;51.130;13.658;2024-01-25T20:15:13;100158.13;;;4.40;100.00
76732;BME280;65656;51.130;13.658;2024-01-25T20:19:16;100170.09;;;4.45;100.00
76732;BME280;65656;51.130;13.658;2024-01-25T20:23:17;100165.72;;;4.44;100.00
76732;BME280;65656;51.130;13.658;2024-01-25T20:27:20;100156.13;;;4.48;100.00
76732;BME280;65656;51.130;13.658;2024-01-25T20:31:22;100156.06;;;4.42;100.00
76732;BME280;65656;51.130;13.658;2024-01-25T20:35:23;100156.53;;;4.45;100.00
76732;BME280;65656;51.130;13.658;2024-01-25T20:39:25;100156.91;;;4.42;100.00
76732;BME280;65656;51.130;13.658;2024-01-25T20:43:28;100155.53;;;4.32;100.00
76732;BME280;65656;51.130;13.658;2024-01-25T20:47:29;100169.44;;;4.43;100.00
76732;BME280;65656;51.130;13.658;2024-01-25T20:51:31;100164.25;;;4.27;100.00
76732;BME280;65656;51.130;13.658;2024-01-25T20:55:32;100156.38;;;4.32;100.00
76732;BME280;65656;51.130;13.658;2024-01-25T20:59:36;100150.97;;;4.32;100.00
76732;BME280;65656;51.130;13.658;2024-01-25T21:03:38;100157.31;;;4.39;100.00
76732;BME280;65656;51.130;13.658;2024-01-25T21:07:40;100166.34;;;4.46;100.00
76732;BME280;65656;51.130;13.658;2024-01-25T21:11:43;100165.59;;;4.53;100.00